Fehn Calais — V2CI3 — position and weather

sailwx.info

Track history (hours):
 
Tides and Currents Weather Stations Pressure Air Temp Water Temp Dewpoint Dewpoint Depression Visibility Wind Speed Wind Dir Waves Ship Positions

Fehn Calais

Last reported at 2014-Dec-18 05:25 UTC. Time now 2014-Dec-20 03:43 UTC.
Position N 39°52' E 003°51'.

Length 82 m; draft 3.8 m.

Type: Cargo ship. MMSI: 305009000.

Date/timePositionNaut miles runAvg speedWind from/ knotsBaromVisibWave heightAir tempDewpointWater temp
2014-Dec-18 05:25N 39°52' E 003°51'11 8.5
2014-Dec-18 04:08N 39°59' E 003°41'17 8.4
2014-Dec-18 02:04N 40°12' E 003°26'7 8.5
2014-Dec-18 01:14N 40°18' E 003°20'6 8.4
2014-Dec-18 00:33N 40°22' E 003°15'8 8.4
2014-Dec-17 23:33N 40°28' E 003°08'8 8.3
2014-Dec-17 22:33N 40°35' E 003°01'8 8.3
2014-Dec-17 21:33N 40°41' E 002°53'8 8.4
2014-Dec-17 20:33N 40°47' E 002°46'8 8.3
2014-Dec-17 19:33N 40°52' E 002°37'20 9.0
2014-Dec-17 17:23N 41°08' E 002°21'16 8.2
2014-Dec-17 15:28N 41°20' E 002°09'19 1.4
2014-Dec-17 01:25N 41°01' E 002°08'7 8.1
2014-Dec-17 00:32N 40°54' E 002°07'7 7.5
2014-Dec-16 23:33N 40°47' E 002°05'8 7.9
2014-Dec-16 22:33N 40°39' E 002°04'8 8.0
2014-Dec-16 21:33N 40°31' E 002°03'8 8.4
2014-Dec-16 20:33N 40°22' E 002°01'8 8.4
2014-Dec-16 19:33N 40°14' E 001°59'8 8.4
2014-Dec-16 18:33N 40°06' E 001°58'8 8.3
2014-Dec-16 17:33N 39°58' E 001°56'8 8.2
2014-Dec-16 16:33N 39°50' E 001°55'8 8.4
2014-Dec-16 15:33N 39°41' E 001°53'8 7.9
2014-Dec-16 14:33N 39°33' E 001°52'8 7.9
2014-Dec-16 13:31N 39°25' E 001°50'8 7.8
2014-Dec-16 12:33N 39°18' E 001°49'8 8.1
2014-Dec-16 11:33N 39°10' E 001°47'8 8.0
2014-Dec-16 10:34N 39°02' E 001°46'8 7.8
2014-Dec-16 09:33N 38°54' E 001°45'10 8.3
2014-Dec-16 08:23N 38°45' E 001°43'  
2014-Dec-10 10:34N 35°58' W 005°15'1010.4
2014-Dec-10 09:33N 35°57' W 005°28'  
Track history (hours):
 
Tides and Currents Weather Stations Pressure Air Temp Water Temp Dewpoint Dewpoint Depression Visibility Wind Speed Wind Dir Waves Ship Positions

Fehn Calais

Last reported at 2014-Dec-18 05:25 UTC. Time now 2014-Dec-20 03:43 UTC.
Position N 39°52' E 003°51'.

Length 82 m; draft 3.8 m.

Type: Cargo ship. MMSI: 305009000.

Date/timePositionNaut miles runAvg speedWind from/ knotsBaromVisibWave heightAir tempDewpointWater temp
2014-Dec-18 05:25N 39°52' E 003°51'11 8.5
2014-Dec-18 04:08N 39°59' E 003°41'17 8.4
2014-Dec-18 02:04N 40°12' E 003°26'7 8.5
2014-Dec-18 01:14N 40°18' E 003°20'6 8.4
2014-Dec-18 00:33N 40°22' E 003°15'8 8.4
2014-Dec-17 23:33N 40°28' E 003°08'8 8.3
2014-Dec-17 22:33N 40°35' E 003°01'8 8.3
2014-Dec-17 21:33N 40°41' E 002°53'8 8.4
2014-Dec-17 20:33N 40°47' E 002°46'8 8.3
2014-Dec-17 19:33N 40°52' E 002°37'20 9.0
2014-Dec-17 17:23N 41°08' E 002°21'16 8.2
2014-Dec-17 15:28N 41°20' E 002°09'19 1.4
2014-Dec-17 01:25N 41°01' E 002°08'7 8.1
2014-Dec-17 00:32N 40°54' E 002°07'7 7.5
2014-Dec-16 23:33N 40°47' E 002°05'8 7.9
2014-Dec-16 22:33N 40°39' E 002°04'8 8.0
2014-Dec-16 21:33N 40°31' E 002°03'8 8.4
2014-Dec-16 20:33N 40°22' E 002°01'8 8.4
2014-Dec-16 19:33N 40°14' E 001°59'8 8.4
2014-Dec-16 18:33N 40°06' E 001°58'8 8.3
2014-Dec-16 17:33N 39°58' E 001°56'8 8.2
2014-Dec-16 16:33N 39°50' E 001°55'8 8.4
2014-Dec-16 15:33N 39°41' E 001°53'8 7.9
2014-Dec-16 14:33N 39°33' E 001°52'8 7.9
2014-Dec-16 13:31N 39°25' E 001°50'8 7.8
2014-Dec-16 12:33N 39°18' E 001°49'8 8.1
2014-Dec-16 11:33N 39°10' E 001°47'8 8.0
2014-Dec-16 10:34N 39°02' E 001°46'8 7.8
2014-Dec-16 09:33N 38°54' E 001°45'10 8.3
2014-Dec-16 08:23N 38°45' E 001°43'  
2014-Dec-10 10:34N 35°58' W 005°15'1010.4
2014-Dec-10 09:33N 35°57' W 005°28'  

Dump ship's entire track history